createdAt,value
2023-04-03T00:00:32.140Z,25.69
2023-04-03T00:01:32.110Z,25.67
2023-04-03T00:02:32.166Z,25.69
2023-04-03T00:03:32.059Z,25.67
2023-04-03T00:04:32.024Z,25.67
2023-04-03T00:05:31.972Z,25.64
2023-04-03T00:06:31.971Z,25.67
2023-04-03T00:07:31.922Z,25.66
2023-04-03T00:08:31.909Z,25.69
2023-04-03T00:09:31.856Z,25.67
2023-04-03T00:10:31.848Z,25.69
2023-04-03T00:11:31.791Z,25.67
2023-04-03T00:12:31.756Z,25.63
2023-04-03T00:13:31.725Z,25.66
2023-04-03T00:14:31.700Z,25.66
2023-04-03T00:15:31.659Z,25.66
2023-04-03T00:16:31.652Z,25.66
2023-04-03T00:17:31.619Z,25.64
2023-04-03T00:18:31.589Z,25.66
2023-04-03T00:19:31.531Z,25.66
2023-04-03T00:20:31.490Z,25.67
2023-04-03T00:21:31.453Z,25.66
2023-04-03T00:22:31.422Z,25.64
2023-04-03T00:23:31.384Z,25.64
2023-04-03T00:24:31.349Z,25.64
2023-04-03T00:25:31.320Z,25.64
2023-04-03T00:26:31.306Z,25.63
2023-04-03T00:27:31.251Z,25.64
2023-04-03T00:28:31.264Z,25.64
2023-04-03T00:29:31.205Z,25.63
2023-04-03T00:30:31.153Z,25.64
2023-04-03T00:31:31.185Z,25.66
2023-04-03T00:32:31.120Z,25.63
2023-04-03T00:33:31.075Z,25.66
2023-04-03T00:34:31.061Z,25.64
2023-04-03T00:35:31.023Z,25.63
2023-04-03T00:36:31.187Z,25.64
2023-04-03T00:37:30.970Z,25.63
2023-04-03T00:38:30.977Z,25.63
2023-04-03T00:39:30.931Z,25.63
2023-04-03T00:40:30.896Z,25.64
2023-04-03T00:41:30.864Z,25.63
2023-04-03T00:42:30.838Z,25.64
2023-04-03T00:43:30.813Z,25.61
2023-04-03T00:44:30.791Z,25.63
2023-04-03T00:45:30.734Z,25.64
2023-04-03T00:46:30.744Z,25.63
2023-04-03T00:47:30.724Z,25.63
2023-04-03T00:48:30.689Z,25.63
2023-04-03T00:49:30.632Z,25.63
2023-04-03T00:50:30.600Z,25.63
2023-04-03T00:51:30.560Z,25.61
2023-04-03T00:52:30.543Z,25.60
2023-04-03T00:53:30.521Z,25.61
2023-04-03T00:54:30.479Z,25.64
2023-04-03T00:55:30.458Z,25.63
2023-04-03T00:56:30.417Z,25.61
2023-04-03T00:57:30.444Z,25.63
2023-04-03T00:58:30.386Z,25.63
2023-04-03T00:59:30.349Z,25.61
2023-04-03T01:00:30.307Z,25.60
2023-04-03T01:01:30.321Z,25.61
2023-04-03T01:02:30.280Z,25.64
2023-04-03T01:03:30.237Z,25.61
2023-04-03T01:04:30.368Z,25.61
2023-04-03T01:05:30.199Z,25.61
2023-04-03T01:06:30.170Z,25.61
2023-04-03T01:07:30.152Z,25.59
2023-04-03T01:08:30.126Z,25.60
2023-04-03T01:09:30.098Z,25.61
2023-04-03T01:10:30.085Z,25.59
2023-04-03T01:11:30.041Z,25.59
2023-04-03T01:12:30.014Z,25.57
2023-04-03T01:13:29.982Z,25.59
2023-04-03T01:14:29.958Z,25.59
2023-04-03T01:15:29.949Z,25.57
2023-04-03T01:16:29.981Z,25.60
2023-04-03T01:17:29.916Z,25.60
2023-04-03T01:18:29.868Z,25.59
2023-04-03T01:19:29.861Z,25.59
2023-04-03T01:20:29.837Z,25.59
2023-04-03T01:21:29.845Z,25.57
2023-04-03T01:22:29.783Z,25.59
2023-04-03T01:23:29.762Z,25.57
2023-04-03T01:24:29.765Z,25.59
2023-04-03T01:25:29.728Z,25.57
2023-04-03T01:26:29.696Z,25.57
2023-04-03T01:27:29.685Z,25.59
2023-04-03T01:28:29.652Z,25.59
2023-04-03T01:29:29.646Z,25.59
2023-04-03T01:30:29.625Z,25.57
2023-04-03T01:31:29.628Z,25.59
2023-04-03T01:32:29.562Z,25.56
2023-04-03T01:33:29.532Z,25.57
2023-04-03T01:34:29.541Z,25.57
2023-04-03T01:35:29.508Z,25.57
2023-04-03T01:36:29.480Z,25.60
2023-04-03T01:37:29.450Z,25.57
2023-04-03T01:38:29.432Z,25.56
2023-04-03T01:39:29.408Z,25.56
2023-04-03T01:40:29.380Z,25.59
2023-04-03T01:41:29.370Z,25.57
2023-04-03T01:42:29.347Z,25.57
2023-04-03T01:43:29.326Z,25.56
2023-04-03T01:44:29.291Z,25.56
2023-04-03T01:45:29.303Z,25.56
2023-04-03T01:46:29.254Z,25.56
2023-04-03T01:47:29.266Z,25.53
2023-04-03T01:48:29.190Z,25.57
2023-04-03T01:49:29.210Z,25.59
2023-04-03T01:50:29.139Z,25.54
2023-04-03T01:51:29.120Z,25.56
2023-04-03T01:52:29.092Z,25.56
2023-04-03T01:53:29.081Z,25.57
2023-04-03T01:54:29.051Z,25.57
2023-04-03T01:55:29.030Z,25.53
2023-04-03T01:56:28.995Z,25.56
2023-04-03T01:57:29.009Z,25.54
2023-04-03T01:58:28.947Z,25.53
2023-04-03T01:59:28.942Z,25.53
2023-04-03T02:00:28.906Z,25.54
2023-04-03T02:01:28.896Z,25.56
2023-04-03T02:02:28.860Z,25.56
2023-04-03T02:03:28.814Z,25.53
2023-04-03T02:04:28.890Z,25.54
2023-04-03T02:05:28.735Z,25.53
2023-04-03T02:06:28.703Z,25.53
2023-04-03T02:07:28.663Z,25.56
2023-04-03T02:08:28.628Z,25.56
2023-04-03T02:09:28.611Z,25.54
2023-04-03T02:10:28.575Z,25.54
2023-04-03T02:11:28.547Z,25.54
2023-04-03T02:12:28.521Z,25.53
2023-04-03T02:13:28.477Z,25.54
2023-04-03T02:14:28.442Z,25.54
2023-04-03T02:15:28.396Z,25.52
2023-04-03T02:16:28.377Z,25.53
2023-04-03T02:17:28.368Z,25.56
2023-04-03T02:18:28.287Z,25.53
2023-04-03T02:19:28.251Z,25.52
2023-04-03T02:20:28.224Z,25.54
2023-04-03T02:21:28.192Z,25.54
2023-04-03T02:22:28.164Z,25.52
2023-04-03T02:23:28.122Z,25.52
2023-04-03T02:24:28.085Z,25.53
2023-04-03T02:25:28.042Z,25.52
2023-04-03T02:26:28.026Z,25.53
2023-04-03T02:27:27.986Z,25.54
2023-04-03T02:28:27.939Z,25.53
2023-04-03T02:29:27.917Z,25.52
2023-04-03T02:30:27.873Z,25.53
2023-04-03T02:31:27.917Z,25.52
2023-04-03T02:32:27.859Z,25.52
2023-04-03T02:33:27.789Z,25.53
2023-04-03T02:34:27.756Z,25.52
2023-04-03T02:35:27.750Z,25.49
2023-04-03T02:36:27.681Z,25.52
2023-04-03T02:37:27.652Z,25.53
2023-04-03T02:38:27.639Z,25.53
2023-04-03T02:39:27.591Z,25.53
2023-04-03T02:40:27.564Z,25.53
2023-04-03T02:41:27.525Z,25.53
2023-04-03T02:42:27.484Z,25.50
2023-04-03T02:43:27.467Z,25.53
2023-04-03T02:44:27.415Z,25.52
2023-04-03T02:45:27.430Z,25.52
2023-04-03T02:46:27.425Z,25.50
2023-04-03T02:47:27.321Z,25.50
2023-04-03T02:48:27.268Z,25.50
2023-04-03T02:49:27.238Z,25.50
2023-04-03T02:50:27.241Z,25.49
2023-04-03T02:51:27.162Z,25.49
2023-04-03T02:52:27.153Z,25.50
2023-04-03T02:53:27.138Z,25.52
2023-04-03T02:54:27.046Z,25.50
2023-04-03T02:55:27.025Z,25.49
2023-04-03T02:56:26.968Z,25.53
2023-04-03T02:57:26.956Z,25.50
2023-04-03T02:58:26.894Z,25.49
2023-04-03T02:59:26.869Z,25.47
2023-04-03T03:00:26.811Z,25.49
2023-04-03T03:01:26.801Z,25.49
2023-04-03T03:02:26.774Z,25.50
2023-04-03T03:03:26.704Z,25.47
2023-04-03T03:04:26.670Z,25.50
2023-04-03T03:05:26.631Z,25.49
2023-04-03T03:06:26.617Z,25.49
2023-04-03T03:07:26.614Z,25.47
2023-04-03T03:08:26.602Z,25.47
2023-04-03T03:09:26.572Z,25.49
2023-04-03T03:10:26.599Z,25.49
2023-04-03T03:11:26.560Z,25.47
2023-04-03T03:12:26.545Z,25.49
2023-04-03T03:13:26.558Z,25.47
2023-04-03T03:14:26.514Z,25.47
2023-04-03T03:15:26.512Z,25.46
2023-04-03T03:16:26.591Z,25.47
2023-04-03T03:17:26.519Z,25.47
2023-04-03T03:18:26.484Z,25.49
2023-04-03T03:19:26.454Z,25.46
2023-04-03T03:20:26.456Z,25.46
2023-04-03T03:21:26.441Z,25.46
2023-04-03T03:22:26.436Z,25.49
2023-04-03T03:23:26.423Z,25.47
2023-04-03T03:24:26.409Z,25.46
2023-04-03T03:25:26.417Z,25.46
2023-04-03T03:26:26.385Z,25.44
2023-04-03T03:27:26.390Z,25.44
2023-04-03T03:28:26.379Z,25.46
2023-04-03T03:29:26.380Z,25.42
2023-04-03T03:30:26.357Z,25.44
2023-04-03T03:31:26.406Z,25.44
2023-04-03T03:32:26.371Z,25.43
2023-04-03T03:33:26.334Z,25.42
2023-04-03T03:34:26.326Z,25.46
2023-04-03T03:35:26.282Z,25.46
2023-04-03T03:36:26.307Z,25.46
2023-04-03T03:37:26.233Z,25.44
2023-04-03T03:38:26.191Z,25.44
2023-04-03T03:39:26.160Z,25.44
2023-04-03T03:40:26.145Z,25.46
2023-04-03T03:41:26.107Z,25.43
2023-04-03T03:42:26.057Z,25.44
2023-04-03T03:43:26.023Z,25.43
2023-04-03T03:44:26.008Z,25.44
2023-04-03T03:45:25.969Z,25.44
2023-04-03T03:46:25.951Z,25.42
2023-04-03T03:47:25.895Z,25.43
2023-04-03T03:48:25.873Z,25.46
2023-04-03T03:49:25.834Z,25.43
2023-04-03T03:50:25.793Z,25.43
2023-04-03T03:51:25.766Z,25.43
2023-04-03T03:52:25.728Z,25.43
2023-04-03T03:53:25.710Z,25.43
2023-04-03T03:54:25.689Z,25.42
2023-04-03T03:55:25.665Z,25.42
2023-04-03T03:56:25.606Z,25.44
2023-04-03T03:57:25.588Z,25.43
2023-04-03T03:58:25.542Z,25.42
2023-04-03T03:59:25.506Z,25.43
2023-04-03T04:00:25.476Z,25.40
2023-04-03T04:01:25.461Z,25.43
2023-04-03T04:02:25.530Z,25.42
2023-04-03T04:03:25.440Z,25.43
2023-04-03T04:04:25.348Z,25.43
2023-04-03T04:05:25.319Z,25.40
2023-04-03T04:06:25.293Z,25.42
2023-04-03T04:07:25.265Z,25.42
2023-04-03T04:08:25.267Z,25.42
2023-04-03T04:09:25.273Z,25.43
2023-04-03T04:10:25.258Z,25.40
2023-04-03T04:11:25.261Z,25.42
2023-04-03T04:12:25.259Z,25.40
2023-04-03T04:13:25.237Z,25.40
2023-04-03T04:14:25.228Z,25.42
2023-04-03T04:15:25.229Z,25.40
2023-04-03T04:16:25.240Z,25.42
2023-04-03T04:17:25.268Z,25.39
2023-04-03T04:18:25.227Z,25.42
2023-04-03T04:19:25.194Z,25.42
2023-04-03T04:20:25.193Z,25.39
2023-04-03T04:21:25.189Z,25.40
2023-04-03T04:22:25.178Z,25.40
2023-04-03T04:23:25.148Z,25.40
2023-04-03T04:24:25.155Z,25.40
2023-04-03T04:25:25.145Z,25.40
2023-04-03T04:26:25.142Z,25.40
2023-04-03T04:27:25.127Z,25.39
2023-04-03T04:28:25.117Z,25.39
2023-04-03T04:29:25.100Z,25.39
2023-04-03T04:30:25.115Z,25.39
2023-04-03T04:31:25.093Z,25.42
2023-04-03T04:32:25.082Z,25.39
2023-04-03T04:33:25.084Z,25.37
2023-04-03T04:34:25.090Z,25.37
2023-04-03T04:35:25.097Z,25.39
2023-04-03T04:36:25.170Z,25.39
2023-04-03T04:37:25.079Z,25.37
2023-04-03T04:38:25.070Z,25.37
2023-04-03T04:39:25.068Z,25.37
2023-04-03T04:40:25.049Z,25.37
2023-04-03T04:41:25.057Z,25.39
2023-04-03T04:42:25.043Z,25.36
2023-04-03T04:43:25.030Z,25.39
2023-04-03T04:44:25.026Z,25.39
2023-04-03T04:45:25.000Z,25.37
2023-04-03T04:46:25.003Z,25.37
2023-04-03T04:47:25.025Z,25.37
2023-04-03T04:48:24.978Z,25.37
2023-04-03T04:49:24.986Z,25.37
2023-04-03T04:50:24.979Z,25.37
2023-04-03T04:51:24.986Z,25.37
2023-04-03T04:52:24.972Z,25.39
2023-04-03T04:53:24.977Z,25.37
2023-04-03T04:54:24.934Z,25.37
2023-04-03T04:55:24.908Z,25.37
2023-04-03T04:56:24.876Z,25.36
2023-04-03T04:57:24.875Z,25.37
2023-04-03T04:58:24.796Z,25.36
2023-04-03T04:59:24.778Z,25.35
2023-04-03T05:00:24.763Z,25.40
2023-04-03T05:01:24.741Z,25.37
2023-04-03T05:02:24.707Z,25.36
2023-04-03T05:03:24.652Z,25.37
2023-04-03T05:04:24.628Z,25.37
2023-04-03T05:05:24.573Z,25.35
2023-04-03T05:06:24.544Z,25.35
2023-04-03T05:07:24.506Z,25.36
2023-04-03T05:08:24.480Z,25.36
2023-04-03T05:09:24.471Z,25.36
2023-04-03T05:10:24.423Z,25.35
2023-04-03T05:11:25.205Z,25.35
2023-04-03T05:12:24.363Z,25.37
2023-04-03T05:13:24.321Z,25.36
2023-04-03T05:14:24.309Z,25.37
2023-04-03T05:15:24.264Z,25.36
2023-04-03T05:16:24.337Z,25.35
2023-04-03T05:17:24.288Z,25.35
2023-04-03T05:18:24.283Z,25.37
2023-04-03T05:19:24.253Z,25.35
2023-04-03T05:20:24.278Z,25.37
2023-04-03T05:21:24.318Z,25.36
2023-04-03T05:22:24.248Z,25.35
2023-04-03T05:23:24.209Z,25.35
2023-04-03T05:24:24.179Z,25.37
2023-04-03T05:25:24.159Z,25.36
2023-04-03T05:26:24.118Z,25.35
2023-04-03T05:27:24.076Z,25.35
2023-04-03T05:28:24.052Z,25.36
2023-04-03T05:29:24.011Z,25.37
2023-04-03T05:30:23.987Z,25.36
2023-04-03T05:31:23.972Z,25.36
2023-04-03T05:32:23.939Z,25.33
2023-04-03T05:33:23.897Z,25.35
2023-04-03T05:34:23.866Z,25.33
2023-04-03T05:35:23.847Z,25.37
2023-04-03T05:36:23.856Z,25.36
2023-04-03T05:37:23.777Z,25.35
2023-04-03T05:38:23.739Z,25.35
2023-04-03T05:39:23.694Z,25.35
2023-04-03T05:40:23.667Z,25.36
2023-04-03T05:41:23.636Z,25.33
2023-04-03T05:42:23.596Z,25.33
2023-04-03T05:43:23.554Z,25.36
2023-04-03T05:44:23.558Z,25.36
2023-04-03T05:45:23.497Z,25.33
2023-04-03T05:46:23.575Z,25.35
2023-04-03T05:47:23.470Z,25.36
2023-04-03T05:48:23.418Z,25.36
2023-04-03T05:49:23.385Z,25.35
2023-04-03T05:50:23.391Z,25.35
2023-04-03T05:51:23.323Z,25.33
2023-04-03T05:52:23.300Z,25.35
2023-04-03T05:53:23.274Z,25.36
2023-04-03T05:54:23.239Z,25.36
2023-04-03T05:55:23.235Z,25.33
2023-04-03T05:56:23.198Z,25.33
2023-04-03T05:57:23.181Z,25.33
2023-04-03T05:58:23.138Z,25.36
2023-04-03T05:59:23.100Z,25.33
2023-04-03T06:00:23.079Z,25.32
2023-04-03T06:01:23.044Z,25.36
2023-04-03T06:02:23.063Z,25.35
2023-04-03T06:03:23.064Z,25.32
2023-04-03T06:04:23.057Z,25.33
2023-04-03T06:05:22.945Z,25.32
2023-04-03T06:06:22.875Z,25.33
2023-04-03T06:07:22.855Z,25.33
2023-04-03T06:08:22.851Z,25.35
2023-04-03T06:09:22.794Z,25.32
2023-04-03T06:10:22.764Z,25.33
2023-04-03T06:11:22.734Z,25.32
2023-04-03T06:12:22.715Z,25.33
2023-04-03T06:13:22.685Z,25.36
2023-04-03T06:14:22.654Z,25.33
2023-04-03T06:15:22.624Z,25.33
2023-04-03T06:16:22.614Z,25.36
2023-04-03T06:17:22.761Z,25.33
2023-04-03T06:18:22.512Z,25.35
2023-04-03T06:19:22.485Z,25.35
2023-04-03T06:20:22.494Z,25.35
2023-04-03T06:21:22.420Z,25.36
2023-04-03T06:22:22.401Z,25.35
2023-04-03T06:23:22.390Z,25.32
2023-04-03T06:24:22.355Z,25.33
2023-04-03T06:25:22.374Z,25.35
2023-04-03T06:26:22.326Z,25.35
2023-04-03T06:27:22.295Z,25.35
2023-04-03T06:28:22.260Z,25.36
2023-04-03T06:29:22.224Z,25.35
2023-04-03T06:30:22.181Z,25.36
2023-04-03T06:31:22.218Z,25.33
2023-04-03T06:32:22.152Z,25.36
2023-04-03T06:33:22.099Z,25.36
2023-04-03T06:34:22.074Z,25.35
2023-04-03T06:35:22.034Z,25.35
2023-04-03T06:36:22.065Z,25.35
2023-04-03T06:37:21.999Z,25.36
2023-04-03T06:38:21.983Z,25.36
2023-04-03T06:39:21.931Z,25.36
2023-04-03T06:40:21.908Z,25.36
2023-04-03T06:41:21.893Z,25.33
2023-04-03T06:42:21.847Z,25.35
2023-04-03T06:43:23.050Z,25.35
2023-04-03T06:44:21.800Z,25.35
2023-04-03T06:45:21.797Z,25.36
2023-04-03T06:46:21.823Z,25.36
2023-04-03T06:47:21.814Z,25.36
2023-04-03T06:48:21.818Z,25.35
2023-04-03T06:49:21.788Z,25.36
2023-04-03T06:50:21.789Z,25.36
2023-04-03T06:51:21.781Z,25.37
2023-04-03T06:52:21.806Z,25.37
2023-04-03T06:53:21.793Z,25.36
2023-04-03T06:54:21.782Z,25.35
2023-04-03T06:55:21.785Z,25.37
2023-04-03T06:56:21.774Z,25.36
2023-04-03T06:57:21.816Z,25.37
2023-04-03T06:58:22.655Z,25.36
2023-04-03T06:59:21.714Z,25.37
2023-04-03T07:00:21.685Z,25.36
2023-04-03T07:01:21.730Z,25.35
2023-04-03T07:02:21.735Z,25.35
2023-04-03T07:03:21.639Z,25.36
2023-04-03T07:04:21.750Z,25.36
2023-04-03T07:05:21.583Z,25.36
2023-04-03T07:06:21.576Z,25.37
2023-04-03T07:07:21.576Z,25.37
2023-04-03T07:08:21.502Z,25.37
2023-04-03T07:09:21.469Z,25.37
2023-04-03T07:10:21.447Z,25.37
2023-04-03T07:11:21.450Z,25.37
2023-04-03T07:12:21.388Z,25.37
2023-04-03T07:13:21.365Z,25.37
2023-04-03T07:14:21.425Z,25.36
2023-04-03T07:15:21.320Z,25.35
2023-04-03T07:16:21.319Z,25.35
2023-04-03T07:17:21.280Z,25.36
2023-04-03T07:18:21.237Z,25.36
2023-04-03T07:19:21.209Z,25.37
2023-04-03T07:20:21.231Z,25.36
2023-04-03T07:21:21.325Z,25.37
2023-04-03T07:22:21.212Z,25.36
2023-04-03T07:23:21.231Z,25.36
2023-04-03T07:24:21.222Z,25.35
2023-04-03T07:25:21.199Z,25.37
2023-04-03T07:26:21.210Z,25.36
2023-04-03T07:27:21.225Z,25.39
2023-04-03T07:28:21.199Z,25.36
2023-04-03T07:29:21.188Z,25.37
2023-04-03T07:30:21.196Z,25.36
2023-04-03T07:31:21.189Z,25.37
2023-04-03T07:32:21.172Z,25.39
2023-04-03T07:33:21.178Z,25.35
2023-04-03T07:34:21.186Z,25.36
2023-04-03T07:35:21.176Z,25.36
2023-04-03T07:36:21.243Z,25.33
2023-04-03T07:37:21.178Z,25.33
2023-04-03T07:38:21.199Z,25.33
2023-04-03T07:39:21.185Z,25.33
2023-04-03T07:40:21.183Z,25.33
2023-04-03T07:41:21.243Z,25.30
2023-04-03T07:42:21.189Z,25.30
2023-04-03T07:43:21.204Z,25.33
2023-04-03T07:44:21.257Z,25.29
2023-04-03T07:45:21.210Z,25.32
2023-04-03T07:46:21.355Z,25.32
2023-04-03T07:47:21.252Z,25.32
2023-04-03T07:48:21.220Z,25.32
2023-04-03T07:49:21.222Z,25.30
2023-04-03T07:50:21.230Z,25.29
2023-04-03T07:51:21.258Z,25.30
2023-04-03T07:52:21.222Z,25.29
2023-04-03T07:53:21.243Z,25.29
2023-04-03T07:54:21.252Z,25.33
2023-04-03T07:55:21.257Z,25.29
2023-04-03T07:56:21.263Z,25.29
2023-04-03T07:57:21.358Z,25.30
2023-04-03T07:58:21.274Z,25.32
2023-04-03T07:59:21.287Z,25.29
2023-04-03T08:00:21.371Z,25.32
2023-04-03T08:01:21.274Z,25.30
2023-04-03T08:02:21.285Z,25.30
2023-04-03T08:03:21.468Z,25.32
2023-04-03T08:04:21.401Z,25.30
2023-04-03T08:05:21.326Z,25.30
2023-04-03T08:07:21.312Z,25.32
2023-04-03T08:08:21.645Z,25.35
2023-04-03T08:09:21.354Z,25.32
2023-04-03T08:10:21.354Z,25.33
2023-04-03T08:11:21.337Z,25.35
2023-04-03T08:12:21.333Z,25.35
2023-04-03T08:13:21.334Z,25.35
2023-04-03T08:14:21.357Z,25.36
2023-04-03T08:15:21.327Z,25.39
2023-04-03T08:16:21.336Z,25.36
2023-04-03T08:17:21.304Z,25.37
2023-04-03T08:18:21.326Z,25.37
2023-04-03T08:19:26.219Z,25.37
2023-04-03T08:20:22.340Z,25.39
2023-04-03T08:21:21.230Z,25.40
2023-04-03T08:22:21.225Z,25.39
2023-04-03T08:23:21.179Z,25.42
2023-04-03T08:24:21.148Z,25.43
2023-04-03T08:25:21.121Z,25.40
2023-04-03T08:26:21.090Z,25.42
2023-04-03T08:27:21.065Z,25.39
2023-04-03T08:28:21.087Z,25.42
2023-04-03T08:29:21.012Z,25.40
2023-04-03T08:30:21.023Z,25.39
2023-04-03T08:31:21.094Z,25.43
2023-04-03T08:32:20.926Z,25.44
2023-04-03T08:33:20.911Z,25.44
2023-04-03T08:34:20.888Z,25.44
2023-04-03T08:35:20.837Z,25.43
2023-04-03T08:36:20.827Z,25.44
2023-04-03T08:37:20.786Z,25.44
2023-04-03T08:38:20.764Z,25.46
2023-04-03T08:39:20.740Z,25.44
2023-04-03T08:40:20.786Z,25.46
2023-04-03T08:41:20.697Z,25.46
2023-04-03T08:42:20.762Z,25.47
2023-04-03T08:43:20.701Z,25.49
2023-04-03T08:44:20.665Z,25.49
2023-04-03T08:45:20.656Z,25.50
2023-04-03T08:46:20.649Z,25.46
2023-04-03T08:47:20.635Z,25.47
2023-04-03T08:48:20.641Z,25.46
2023-04-03T08:49:20.744Z,25.49
2023-04-03T08:50:20.763Z,25.50
2023-04-03T08:51:20.607Z,25.49
2023-04-03T08:52:20.645Z,25.49
2023-04-03T08:53:20.603Z,25.49
2023-04-03T08:54:20.597Z,25.49
2023-04-03T08:55:20.590Z,25.49
2023-04-03T08:56:20.589Z,25.52
2023-04-03T08:57:20.641Z,25.52
2023-04-03T08:58:20.615Z,25.50
2023-04-03T08:59:20.551Z,25.52
2023-04-03T09:00:20.597Z,25.53
2023-04-03T09:01:20.577Z,25.49
2023-04-03T09:02:20.539Z,25.54
2023-04-03T09:03:20.591Z,25.52
2023-04-03T09:04:20.630Z,25.53
2023-04-03T09:05:20.512Z,25.53
2023-04-03T09:06:20.570Z,25.54
2023-04-03T09:07:20.502Z,25.56
2023-04-03T09:08:20.487Z,25.53
2023-04-03T09:09:20.482Z,25.54
2023-04-03T09:10:20.494Z,25.56
2023-04-03T09:11:20.424Z,25.57
2023-04-03T09:12:20.399Z,25.56
2023-04-03T09:13:20.383Z,25.59
2023-04-03T09:14:20.340Z,25.59
2023-04-03T09:15:31.308Z,25.59
2023-04-03T09:16:20.271Z,25.57
2023-04-03T09:17:20.215Z,25.59
2023-04-03T09:18:20.193Z,25.59
2023-04-03T09:19:20.198Z,25.61
2023-04-03T09:20:21.083Z,25.61
2023-04-03T09:21:20.084Z,25.60
2023-04-03T09:22:20.144Z,25.59
2023-04-03T09:23:20.029Z,25.61
2023-04-03T09:24:19.997Z,25.63
2023-04-03T09:25:19.989Z,25.63
2023-04-03T09:26:19.905Z,25.63
2023-04-03T09:27:19.913Z,25.66
2023-04-03T09:28:19.867Z,25.67
2023-04-03T09:29:19.891Z,25.67
2023-04-03T09:30:19.776Z,25.66
2023-04-03T09:31:19.782Z,25.67
2023-04-03T09:32:19.709Z,25.71
2023-04-03T09:33:19.696Z,25.73
2023-04-03T09:34:19.654Z,25.73
2023-04-03T09:35:23.327Z,25.80
2023-04-03T09:36:20.642Z,25.84
2023-04-03T09:37:19.569Z,25.84
2023-04-03T09:38:19.619Z,25.85
2023-04-03T09:39:19.476Z,25.88
2023-04-03T09:40:19.460Z,25.91
2023-04-03T09:41:19.408Z,25.89
2023-04-03T09:42:19.393Z,25.87
2023-04-03T09:43:19.364Z,25.89
2023-04-03T09:44:19.307Z,25.89
2023-04-03T09:45:19.274Z,25.89
2023-04-03T09:46:20.706Z,25.89
2023-04-03T09:47:19.224Z,25.91
2023-04-03T09:48:19.227Z,25.91
2023-04-03T09:49:19.173Z,25.88
2023-04-03T09:50:19.106Z,25.89
2023-04-03T09:51:19.099Z,25.91
2023-04-03T09:52:19.051Z,25.91
2023-04-03T09:53:19.058Z,25.89
2023-04-03T09:54:19.083Z,25.89
2023-04-03T09:55:18.970Z,25.94
2023-04-03T09:56:18.945Z,25.92
2023-04-03T09:57:18.943Z,25.92
2023-04-03T09:58:18.851Z,25.94
2023-04-03T09:59:18.841Z,25.95
2023-04-03T10:00:18.796Z,25.97
2023-04-03T10:01:18.800Z,25.95
2023-04-03T10:02:18.744Z,25.97
2023-04-03T10:03:18.746Z,25.97
2023-04-03T10:04:18.769Z,25.97
2023-04-03T10:05:18.792Z,26.01
2023-04-03T10:06:18.789Z,25.97
2023-04-03T10:07:18.810Z,25.99
2023-04-03T10:08:18.859Z,25.98
2023-04-03T10:09:18.900Z,25.98
2023-04-03T10:10:19.021Z,26.01
2023-04-03T10:11:18.916Z,25.99
2023-04-03T10:12:18.927Z,26.02
2023-04-03T10:13:20.940Z,26.04
2023-04-03T10:14:19.087Z,26.01
2023-04-03T10:15:19.135Z,26.05
2023-04-03T10:16:19.145Z,26.05
2023-04-03T10:17:19.180Z,26.04
2023-04-03T10:18:24.681Z,26.05
2023-04-03T10:19:20.178Z,26.02
2023-04-03T10:20:19.149Z,26.05
2023-04-03T10:21:27.082Z,26.05
2023-04-03T10:22:19.069Z,26.06
2023-04-03T10:23:19.051Z,26.06
2023-04-03T10:24:19.000Z,26.08
2023-04-03T10:25:18.992Z,26.08
2023-04-03T10:26:19.018Z,26.09
2023-04-03T10:27:18.897Z,26.14
2023-04-03T10:28:18.872Z,26.15
2023-04-03T10:29:18.834Z,26.12
2023-04-03T10:30:18.889Z,26.19
2023-04-03T10:31:18.913Z,26.21
2023-04-03T10:32:18.925Z,26.28
2023-04-03T10:33:18.969Z,26.23
2023-04-03T10:34:18.972Z,26.22
2023-04-03T10:35:19.033Z,26.23
2023-04-03T10:36:19.053Z,26.22
2023-04-03T10:37:19.080Z,26.22
2023-04-03T10:38:19.099Z,26.22
2023-04-03T10:39:19.148Z,26.23
2023-04-03T10:40:19.192Z,26.22
2023-04-03T10:41:19.196Z,26.25
2023-04-03T10:42:19.315Z,26.25
2023-04-03T10:43:19.276Z,26.26
2023-04-03T10:44:19.283Z,26.28
2023-04-03T10:45:19.252Z,26.28
2023-04-03T10:46:19.350Z,26.28
2023-04-03T10:47:19.201Z,26.25
2023-04-03T10:48:19.172Z,26.26
2023-04-03T10:49:19.107Z,26.26
2023-04-03T10:50:19.062Z,26.28
2023-04-03T10:51:19.039Z,26.28
2023-04-03T10:52:18.999Z,26.26
2023-04-03T10:53:19.000Z,26.26
2023-04-03T10:54:19.041Z,26.28
2023-04-03T10:55:19.058Z,26.29
2023-04-03T10:56:19.088Z,26.29
2023-04-03T10:57:19.119Z,26.28
2023-04-03T10:58:19.223Z,26.28
2023-04-03T10:59:19.145Z,26.31
2023-04-03T11:00:19.183Z,26.31
2023-04-03T11:01:19.250Z,26.29
2023-04-03T11:02:19.262Z,26.32
2023-04-03T11:03:19.330Z,26.33
2023-04-03T11:04:19.259Z,26.32
2023-04-03T11:05:19.318Z,26.33
2023-04-03T11:06:19.323Z,26.32
2023-04-03T11:07:19.327Z,26.32
2023-04-03T11:08:19.377Z,26.32
2023-04-03T11:09:19.376Z,26.31
2023-04-03T11:10:19.389Z,26.32
2023-04-03T11:11:19.418Z,26.33
2023-04-03T11:12:19.424Z,26.33
2023-04-03T11:13:19.469Z,26.40
2023-04-03T11:14:19.556Z,26.39
2023-04-03T11:15:19.540Z,26.39
2023-04-03T11:16:19.528Z,26.38
2023-04-03T11:17:19.539Z,26.36
2023-04-03T11:18:19.545Z,26.38
2023-04-03T11:19:19.564Z,26.38
2023-04-03T11:20:19.567Z,26.38
2023-04-03T11:21:19.624Z,26.36
2023-04-03T11:22:19.592Z,26.40
2023-04-03T11:23:19.636Z,26.40
2023-04-03T11:24:19.667Z,26.42
2023-04-03T11:25:19.679Z,26.40
2023-04-03T11:26:19.690Z,26.38
2023-04-03T11:27:19.690Z,26.40
2023-04-03T11:28:19.705Z,26.40
2023-04-03T11:29:34.264Z,26.39
2023-04-03T11:30:20.820Z,26.39
2023-04-03T11:31:19.729Z,26.40
2023-04-03T11:32:19.655Z,26.39
2023-04-03T11:33:19.596Z,26.40
2023-04-03T11:34:19.599Z,26.40
2023-04-03T11:35:19.528Z,26.40
2023-04-03T11:37:20.494Z,26.40
2023-04-03T11:38:19.440Z,26.42
2023-04-03T11:39:19.373Z,26.40
2023-04-03T11:40:19.338Z,26.40
2023-04-03T11:41:19.308Z,26.42
2023-04-03T11:42:19.334Z,26.39
2023-04-03T11:43:19.227Z,26.39
2023-04-03T11:44:19.187Z,26.42
2023-04-03T11:45:19.178Z,26.40
2023-04-03T11:46:19.261Z,26.39
2023-04-03T11:47:19.102Z,26.39
2023-04-03T11:48:24.958Z,26.40
2023-04-03T11:49:20.024Z,26.36
2023-04-03T11:50:18.991Z,26.38
2023-04-03T11:51:18.953Z,26.38
2023-04-03T11:52:18.948Z,26.40
2023-04-03T11:53:18.920Z,26.38
2023-04-03T11:54:18.847Z,26.39
2023-04-03T11:55:18.811Z,26.38
2023-04-03T11:56:18.789Z,26.39
2023-04-03T11:57:18.749Z,26.39
2023-04-03T11:58:18.707Z,26.42
2023-04-03T11:59:18.690Z,26.40
2023-04-03T12:00:18.704Z,26.40
2023-04-03T12:01:18.717Z,26.39
2023-04-03T12:02:18.837Z,26.40
2023-04-03T12:03:18.807Z,26.39
2023-04-03T12:04:18.838Z,26.39
2023-04-03T12:05:18.771Z,26.39
2023-04-03T12:06:18.763Z,26.40
2023-04-03T12:07:18.717Z,26.39
2023-04-03T12:08:18.692Z,26.42
2023-04-03T12:09:18.663Z,26.38
2023-04-03T12:10:31.244Z,26.42
2023-04-03T12:11:19.650Z,26.40
2023-04-03T12:12:18.543Z,26.40
2023-04-03T12:13:18.521Z,26.39
2023-04-03T12:14:18.485Z,26.40
2023-04-03T12:15:18.459Z,26.40
2023-04-03T12:16:18.486Z,26.40
2023-04-03T12:17:18.407Z,26.40
2023-04-03T12:18:18.437Z,26.40
2023-04-03T12:19:18.649Z,26.36
2023-04-03T12:20:18.284Z,26.39
2023-04-03T12:21:18.267Z,26.42
2023-04-03T12:22:18.228Z,26.39
2023-04-03T12:23:18.280Z,26.39
2023-04-03T12:24:18.247Z,26.39
2023-04-03T12:25:18.304Z,26.38
2023-04-03T12:26:18.306Z,26.38
2023-04-03T12:27:18.294Z,26.38
2023-04-03T12:28:18.322Z,26.38
2023-04-03T12:29:18.313Z,26.39
2023-04-03T12:30:18.356Z,26.39
2023-04-03T12:31:18.415Z,26.39
2023-04-03T12:32:18.362Z,26.39
2023-04-03T12:33:18.517Z,26.36
2023-04-03T12:34:18.492Z,26.40
2023-04-03T12:35:18.405Z,26.36
2023-04-03T12:36:18.469Z,26.38
2023-04-03T12:37:18.432Z,26.40
2023-04-03T12:38:18.418Z,26.38
2023-04-03T12:39:18.386Z,26.38
2023-04-03T12:40:18.346Z,26.36
2023-04-03T12:41:18.309Z,26.36
2023-04-03T12:42:18.256Z,26.38
2023-04-03T12:43:18.234Z,26.39
2023-04-03T12:44:18.204Z,26.39
2023-04-03T12:45:18.172Z,26.39
2023-04-03T12:46:18.250Z,26.38
2023-04-03T12:47:18.233Z,26.38
2023-04-03T12:48:18.074Z,26.36
2023-04-03T12:49:18.033Z,26.36
2023-04-03T12:50:18.096Z,26.38
2023-04-03T12:51:18.007Z,26.39
2023-04-03T12:52:17.978Z,26.38
2023-04-03T12:53:17.908Z,26.39
2023-04-03T12:54:17.860Z,26.36